San Javier, Spain

1:50 AM CET on December 28, 2014 (GMT +0100)
Los Altos | Change Station
CLOSE
Current Station
Personal Weather Station
Location: Torrevieja, ALICANTE
Elevation: 164 ft
Nearby Weather Stations

Elev 164 ft 37.95 °N, 0.73 °W | Updated 5 seconds ago

Clear
Clear
59.7 °F
Feels Like 59.7 °F
N
6.0
Wind Variable Wind from WSW
Gusts 10.0 mph

Today
High -- | Low -- °F
--% Chance of Precip.
Yesterday
High -- | Low -- °F
Precip. -- in
8:17 AM 5:51 PM
Waxing Crescent, 42% visible
Pressure 29.95 in
Visibility -9999.0 miles
Clouds
Dew Point 35 °F
Humidity 39%
Rainfall 0.00 in
Snow Depth Not available.
UV Not available.
Pollen Not available.
Air Quality Not available.
Flu Activity Not available.
METAR LEAL 280030Z 28014KT CAVOK 14/M00 Q1014 NOSIG

More Conditions Fewer Conditions

Pressure 29.95 in
Visibility -9999.0 miles
Clouds
Dew Point 35 °F
Humidity 39%
Rainfall 0.00 in
Snow Depth Not available.
UV Not available.
Pollen Not available.
Air Quality Not available.
Flu Activity Not available.
METAR LEAL 280030Z 28014KT CAVOK 14/M00 Q1014 NOSIG

More Conditions Fewer Conditions

10-Day Weather Forecast

Almanac

Astronomy

Dec. 28, 2014 Rise Set
Actual Time
Civil Twilight
Nautical Twilight
Astronomical Twilight
Moon
Length of Visible Light
Length of Day
Tomorrow will be .
, % of the Moon is Illuminated

Today's Extremes

Country Highs Country Lows

Community

WunderPhotos

Upload Photos

1,781,117 photos uploaded!

WunderBlogs® & News

Nearby

Air Quality

  Air Quality AQ Index Pollutant
Not available.

Snow Depth

Station Depth Elevation

Earthquake Activity

City Distance Mag. Time & Date
Minimum magnitude displayed is 2.5.

Coastal Water Temperatures

Place Temperature

Nearby Weather Stations